tititudorancea.com
Station Historical Data
Daily Summary for June 27, 2018 Units:  Metric    English   Both
« Previous Day
Next Day »
Daily Weekly Monthly Yearly Custom
  High: Low: Average:
Temperature: -17.8 °C 2.7 °C 6.6 °C
Dew Point: -17.8 °C 1.9 °C 4.6 °C
Humidity: Humidity % 57 % 88 %
Wind Speed: 0 km/h 0 km/h 1 km/h
Wind Gust: 0 km/h - -
Wind:- - ESE
Pressure: 0 hPa 1026.6 hPa -
Precipitation: 0 mm    
Historical Graphs
 
 
Ararat weather Find more about Weather in Ararat, AU


 



 


Tabular Data for June 27, 2018
Time Temperature Dew Point Pressure Wind Wind Speed Wind Gust Humidity Rainfall Rate (Hourly)
-17.8 °C -17.8 °C 0 hPa Calm     Humidity % 0 mm
00:04 5.2 °C 4.3 °C 1031.4 hPa Calm     94 % 0 mm
00:09 5.3 °C 4.4 °C 1031.4 hPa Calm     94 % 0 mm
00:14 5.3 °C 4.4 °C 1031.4 hPa Calm     94 % 0 mm
00:19 5.3 °C 4.4 °C 1031.4 hPa Calm     94 % 0 mm
00:24 5.4 °C 4.5 °C 1031.4 hPa Calm     94 % 0 mm
00:29 5.4 °C 4.5 °C 1031.4 hPa Calm     94 % 0 mm
00:34 5.4 °C 4.5 °C 1031.4 hPa Calm     94 % 0 mm
00:39 5.4 °C 4.6 °C 1031.4 hPa Calm     94 % 0 mm
00:44 5.4 °C 4.5 °C 1031.4 hPa Calm     94 % 0 mm
00:49 5.3 °C 4.4 °C 1031.4 hPa Calm     94 % 0 mm
00:54 5.4 °C 4.5 °C 1031 hPa Calm     94 % 0 mm
00:59 5.3 °C 4.4 °C 1031.4 hPa Calm     94 % 0 mm
01:04 5.3 °C 4.4 °C 1031.4 hPa Calm     94 % 0 mm
01:09 5.2 °C 4.3 °C 1031.4 hPa Calm     94 % 0 mm
01:14 5.2 °C 4.3 °C 1031 hPa Calm     94 % 0 mm
01:19 5.3 °C 4.4 °C 1031 hPa Calm   1.1 km/h 94 % 0 mm
01:24 5.3 °C 4.4 °C 1031 hPa SSE 1.6 km/h 0.2 km/h 94 % 0 mm
01:29 5.3 °C 4.4 °C 1031 hPa Calm     94 % 0 mm
01:34 5.3 °C 4.4 °C 1031.4 hPa Calm     94 % 0 mm
01:39 5.3 °C 4.4 °C 1031 hPa Calm     94 % 0 mm
01:44 5.2 °C 4.3 °C 1031 hPa Calm     94 % 0 mm
01:49 5.2 °C 4.5 °C 1031 hPa Calm     95 % 0 mm
01:54 5.2 °C 4.3 °C 1031 hPa Calm     94 % 0 mm
01:59 5.1 °C 4.2 °C 1031 hPa North 5.6 km/h 2.1 km/h 94 % 0 mm
02:04 5 °C 4.1 °C 1031 hPa SSE 3.7 km/h 3.4 km/h 94 % 0 mm
02:09 4.9 °C 4.1 °C 1031 hPa Calm     94 % 0 mm
02:14 4.9 °C 4 °C 1031 hPa Calm     94 % 0 mm
02:19 4.9 °C 4 °C 1031 hPa Calm     94 % 0 mm
02:24 4.9 °C 4 °C 1031 hPa Calm     94 % 0 mm
02:29 4.8 °C 3.9 °C 1031 hPa Calm     94 % 0 mm
02:34 4.8 °C 3.9 °C 1030.7 hPa Calm     94 % 0 mm
02:39 4.8 °C 3.9 °C 1030.7 hPa Calm     94 % 0 mm
02:44 4.8 °C 4.1 °C 1030.7 hPa SSE 3.7 km/h 0.8 km/h 95 % 0 mm
02:49 4.9 °C 4.2 °C 1030.7 hPa SSE 3.7 km/h 2.6 km/h 95 % 0 mm
02:54 4.8 °C 4.1 °C 1031 hPa North 6.4 km/h 5.3 km/h 95 % 0 mm
02:59 4.9 °C 4.2 °C 1030.7 hPa SSE 3.7 km/h 0.2 km/h 95 % 0 mm
03:04 4.9 °C 4.2 °C 1030.7 hPa Calm     95 % 0 mm
03:09 4.8 °C 3.9 °C 1030.7 hPa Calm     94 % 0 mm
03:14 4.7 °C 3.8 °C 1030.7 hPa Calm     94 % 0 mm
03:19 4.6 °C 3.7 °C 1030.4 hPa North 6.4 km/h 6 km/h 94 % 0 mm
03:24 4.6 °C 3.7 °C 1030.4 hPa SSE 3.7 km/h   94 % 0 mm
03:29 4.5 °C 3.6 °C 1030.4 hPa Calm     94 % 0 mm
03:34 4.4 °C 3.5 °C 1030.7 hPa Calm     94 % 0 mm
03:39 4.3 °C 3.4 °C 1030.4 hPa Calm     94 % 0 mm
03:44 4.2 °C 3.3 °C 1030.4 hPa Calm     94 % 0 mm
03:49 4.1 °C 3.2 °C 1030.4 hPa Calm     94 % 0 mm
03:54 3.9 °C 3.1 °C 1030.4 hPa Calm     94 % 0 mm
03:59 3.8 °C 2.9 °C 1030.4 hPa Calm     94 % 0 mm
04:04 3.8 °C 3.1 °C 1030.4 hPa Calm     95 % 0 mm
04:09 3.8 °C 3.1 °C 1030.4 hPa Calm     95 % 0 mm
04:14 3.8 °C 3.1 °C 1030.4 hPa Calm     95 % 0 mm
04:19 3.8 °C 3.1 °C 1030.4 hPa Calm     95 % 0 mm
04:24 3.8 °C 3.1 °C 1030.4 hPa Calm     95 % 0 mm
04:29 3.8 °C 3.1 °C 1030.4 hPa Calm     95 % 0 mm
04:34 3.9 °C 3.2 °C 1030 hPa Calm     95 % 0 mm
04:39 3.9 °C 3.2 °C 1030.4 hPa Calm     95 % 0 mm
04:44 3.9 °C 3.2 °C 1030.4 hPa Calm     95 % 0 mm
04:49 3.9 °C 3.2 °C 1030.4 hPa Calm     95 % 0 mm
04:54 3.8 °C 3.1 °C 1030 hPa Calm     95 % 0 mm
04:59 3.7 °C 2.8 °C 1030.4 hPa Calm     94 % 0 mm
05:04 3.7 °C 2.9 °C 1030 hPa Calm     95 % 0 mm
05:09 3.6 °C 2.8 °C 1030 hPa Calm     95 % 0 mm
05:14 3.4 °C 2.7 °C 1030 hPa Calm     95 % 0 mm
05:19 3.4 °C 2.7 °C 1030.4 hPa Calm     95 % 0 mm
05:24 3.4 °C 2.7 °C 1030 hPa Calm     95 % 0 mm
05:29 3.3 °C 2.6 °C 1030 hPa Calm     95 % 0 mm
05:34 3.2 °C 2.5 °C 1030 hPa Calm     95 % 0 mm
05:39 3.2 °C 2.4 °C 1030.4 hPa Calm     95 % 0 mm
05:44 2.9 °C 2.1 °C 1030.4 hPa Calm     94 % 0 mm
05:49 2.8 °C 2.1 °C 1030.4 hPa Calm     95 % 0 mm
05:54 2.7 °C 2 °C 1030.4 hPa Calm     95 % 0 mm
05:59 2.7 °C 2 °C 1030.4 hPa Calm     95 % 0 mm
06:04 2.7 °C 1.9 °C 1030.4 hPa Calm     95 % 0 mm
06:09 2.7 °C 2 °C 1030.4 hPa Calm     95 % 0 mm
06:14 2.8 °C 2.1 °C 1030.4 hPa Calm     95 % 0 mm
06:19 2.9 °C 2.2 °C 1030.4 hPa Calm     95 % 0 mm
06:24 2.9 °C 2.2 °C 1030.4 hPa Calm     95 % 0 mm
06:29 3.1 °C 2.3 °C 1030.4 hPa Calm     95 % 0 mm
06:34 3.1 °C 2.4 °C 1030.4 hPa Calm     95 % 0 mm
06:39 3.1 °C 2.6 °C 1030.4 hPa Calm     96 % 0 mm
06:44 3.2 °C 2.5 °C 1030.4 hPa Calm     95 % 0 mm
06:49 3.3 °C 2.7 °C 1030.4 hPa Calm     96 % 0 mm
06:54 3.3 °C 2.6 °C 1030.4 hPa Calm     95 % 0 mm
06:59 3.3 °C 2.6 °C 1030.4 hPa Calm     95 % 0 mm
07:04 3.3 °C 2.6 °C 1030.7 hPa Calm     95 % 0 mm
07:09 3.4 °C 2.7 °C 1030.7 hPa SSE 1.6 km/h 0.2 km/h 95 % 0 mm
07:14 3.4 °C 2.7 °C 1030.7 hPa North 3.7 km/h 0.3 km/h 95 % 0 mm
07:19 3.4 °C 2.7 °C 1030.7 hPa SSE 1.9 km/h   95 % 0 mm
07:24 3.3 °C 2.6 °C 1030.7 hPa Calm     95 % 0 mm
07:29 3.3 °C 2.6 °C 1031 hPa Calm     95 % 0 mm
07:34 3.3 °C 2.6 °C 1030.7 hPa Calm     95 % 0 mm
07:39 3.2 °C 2.5 °C 1030.7 hPa Calm     95 % 0 mm
07:44 3.3 °C 2.6 °C 1030.7 hPa Calm     95 % 0 mm
07:49 3.3 °C 2.6 °C 1030.7 hPa Calm     95 % 0 mm
07:54 3.3 °C 2.6 °C 1030.7 hPa Calm     95 % 0 mm
07:59 3.4 °C 2.8 °C 1031 hPa Calm     96 % 0 mm
08:04 3.4 °C 2.8 °C 1031 hPa Calm     96 % 0 mm
08:09 3.4 °C 2.9 °C 1031 hPa Calm     96 % 0 mm
08:14 3.6 °C 3 °C 1031 hPa Calm     96 % 0 mm
08:19 3.7 °C 3.1 °C 1031 hPa Calm     96 % 0 mm
08:24 3.8 °C 3.2 °C 1031 hPa Calm     96 % 0 mm
08:29 3.9 °C 3.3 °C 1031 hPa Calm     96 % 0 mm
08:34 4.1 °C 3.5 °C 1031 hPa Calm     96 % 0 mm
08:39 4.2 °C 3.6 °C 1031 hPa Calm     96 % 0 mm
08:44 4.3 °C 3.7 °C 1031 hPa Calm     96 % 0 mm
08:49 4.4 °C 3.8 °C 1031 hPa Calm     96 % 0 mm
08:54 4.4 °C 3.9 °C 1031 hPa Calm   1.3 km/h 96 % 0 mm
08:59 4.5 °C 3.9 °C 1031.4 hPa Calm     96 % 0 mm
09:04 4.6 °C 4.1 °C 1031.4 hPa Calm     96 % 0 mm
09:09 4.8 °C 4.2 °C 1031.4 hPa Calm     96 % 0 mm
09:14 4.9 °C 4.3 °C 1031 hPa Calm     96 % 0 mm
09:19 4.9 °C 4.3 °C 1031 hPa Calm     96 % 0 mm
09:24 5.1 °C 4.5 °C 1031 hPa Calm     96 % 0 mm
09:29 5.2 °C 4.6 °C 1031.4 hPa Calm     96 % 0 mm
09:34 5.3 °C 4.7 °C 1031 hPa Calm     96 % 0 mm
09:39 5.4 °C 4.8 °C 1031.4 hPa Calm     96 % 0 mm
09:44 5.4 °C 4.8 °C 1031 hPa Calm     96 % 0 mm
09:49 5.5 °C 4.9 °C 1031 hPa Calm     96 % 0 mm
09:54 5.7 °C 5.1 °C 1031 hPa Calm     96 % 0 mm
09:59 5.8 °C 5.2 °C 1031 hPa Calm     96 % 0 mm
10:04 5.9 °C 5.3 °C 1031 hPa Calm     96 % 0 mm
10:09 6 °C 5.4 °C 1031 hPa Calm     96 % 0 mm
10:14 6.1 °C 5.5 °C 1031 hPa East 1.6 km/h 0.3 km/h 96 % 0 mm
10:19 6.2 °C 5.6 °C 1031 hPa Calm     96 % 0 mm
10:24 6.1 °C 5.5 °C 1031 hPa East 3.7 km/h 2.7 km/h 96 % 0 mm
10:29 6.1 °C 5.4 °C 1031 hPa East 3.2 km/h 0.6 km/h 96 % 0 mm
10:34 6.1 °C 5.4 °C 1031 hPa Calm     96 % 0 mm
10:39 6.1 °C 5.4 °C 1031 hPa East 3.7 km/h 2.4 km/h 96 % 0 mm
10:44 6 °C 5.4 °C 1030.7 hPa Calm     96 % 0 mm
10:49 6.1 °C 5.5 °C 1030.7 hPa Calm     96 % 0 mm
10:54 6.1 °C 5.5 °C 1030.7 hPa Calm     96 % 0 mm
10:59 6.1 °C 5.5 °C 1030.7 hPa Calm     96 % 0 mm
11:04 6.3 °C 5.7 °C 1031 hPa East 3.2 km/h 1.6 km/h 96 % 0 mm
11:09 6.3 °C 5.7 °C 1031 hPa East 3.7 km/h 1 km/h 96 % 0 mm
11:14 6.4 °C 5.8 °C 1031 hPa East 3.2 km/h 3.7 km/h 96 % 0 mm
11:19 6.6 °C 6 °C 1030.7 hPa East 1.9 km/h 1.9 km/h 96 % 0 mm
11:24 6.8 °C 6.2 °C 1030.7 hPa Calm     96 % 0 mm
11:29 7 °C 6.4 °C 1030.4 hPa Calm     96 % 0 mm
11:34 7.3 °C 6.7 °C 1030.4 hPa Calm     96 % 0 mm
11:39 7.6 °C 6.9 °C 1030.4 hPa Calm     96 % 0 mm
11:44 7.7 °C 7.1 °C 1030.4 hPa Calm     96 % 0 mm
11:49 7.7 °C 6.9 °C 1030.4 hPa Calm     95 % 0 mm
11:54 7.8 °C 7.2 °C 1030 hPa Calm     96 % 0 mm
11:59 8 °C 7.2 °C 1030 hPa Calm     95 % 0 mm
12:04 8.4 °C 7.6 °C 1030 hPa Calm     95 % 0 mm
12:09 8.6 °C 7.7 °C 1029.7 hPa East 4.8 km/h 1.9 km/h 94 % 0 mm
12:14 8.8 °C 7.8 °C 1029.7 hPa East 5.6 km/h 1.4 km/h 93 % 0 mm
12:19 9 °C 7.1 °C 1029.7 hPa East 9.3 km/h 7.9 km/h 88 % 0 mm
12:24 9.3 °C 7.1 °C 1029.7 hPa East 7.4 km/h 3.5 km/h 86 % 0 mm
12:29 9.7 °C 7.2 °C 1029.3 hPa East 3.7 km/h 0.2 km/h 84 % 0 mm
12:34 10.2 °C 7.2 °C 1029.3 hPa East 5.6 km/h 4.2 km/h 82 % 0 mm
12:39 10.7 °C 7 °C 1029.3 hPa East 5.6 km/h 3.1 km/h 78 % 0 mm
12:44 11 °C 5.9 °C 1029 hPa East 9.3 km/h 7.1 km/h 71 % 0 mm
12:49 11.2 °C 5.7 °C 1029 hPa East 5.6 km/h 1.9 km/h 69 % 0 mm
12:54 11.4 °C 4.8 °C 1029 hPa East 5.6 km/h 5.8 km/h 64 % 0 mm
12:59 11.3 °C 4.6 °C 1029 hPa East 6.4 km/h 5.3 km/h 63 % 0 mm
13:04 11.4 °C 4.6 °C 1029 hPa East 6.4 km/h 3.7 km/h 63 % 0 mm
13:09 11.4 °C 4.3 °C 1029 hPa East 5.6 km/h 2.3 km/h 62 % 0 mm
13:14 11.4 °C 3.9 °C 1029 hPa East 3.7 km/h 0.6 km/h 60 % 0 mm
13:19 11.4 °C 3.9 °C 1028.7 hPa East 3.2 km/h 1.4 km/h 60 % 0 mm
13:24 11.6 °C 3.8 °C 1028.7 hPa East 3.7 km/h 2.1 km/h 59 % 0 mm
13:29 11.5 °C 3.8 °C 1028.7 hPa East 3.7 km/h 1.8 km/h 59 % 0 mm
13:34 11.6 °C 3.8 °C 1028.7 hPa East 1.9 km/h   59 % 0 mm
13:39 11.6 °C 3.9 °C 1028.7 hPa East 3.2 km/h 2.3 km/h 59 % 0 mm
13:44 11.6 °C 3.4 °C 1028.7 hPa East 5.6 km/h 2.6 km/h 57 % 0 mm
13:49 11.6 °C 3.6 °C 1028.7 hPa East 3.7 km/h 1 km/h 58 % 0 mm
13:54 11.7 °C 3.4 °C 1028.7 hPa Calm     57 % 0 mm
13:59 11.7 °C 3.7 °C 1028.3 hPa East 1.9 km/h   58 % 0 mm
14:04 11.7 °C 3.9 °C 1028.3 hPa East 1.9 km/h 0.6 km/h 59 % 0 mm
14:09 11.7 °C 3.9 °C 1028.3 hPa Calm   0.2 km/h 59 % 0 mm
14:14 11.8 °C 4 °C 1028.3 hPa East 1.9 km/h 0.5 km/h 59 % 0 mm
14:19 11.7 °C 3.7 °C 1028.3 hPa East 1.9 km/h   58 % 0 mm
14:24 11.7 °C 4.4 °C 1028.3 hPa Calm     61 % 0 mm
14:29 11.7 °C 4.2 °C 1028.3 hPa Calm   0.6 km/h 60 % 0 mm
14:34 11.7 °C 4.2 °C 1028.3 hPa Calm     60 % 0 mm
14:39 11.8 °C 4.1 °C 1028 hPa Calm     59 % 0 mm
14:44 11.8 °C 3.6 °C 1028 hPa East 1.9 km/h   57 % 0 mm
14:49 11.8 °C 4 °C 1028 hPa Calm     59 % 0 mm
14:54 11.8 °C 4.1 °C 1028 hPa East 1.9 km/h   59 % 0 mm
14:59 11.7 °C 3.5 °C 1028.3 hPa East 5.6 km/h 3.4 km/h 57 % 0 mm
15:04 11.6 °C 3.9 °C 1028.3 hPa East 1.9 km/h 1 km/h 59 % 0 mm
15:09 11.7 °C 3.9 °C 1028.3 hPa East 1.9 km/h 1.4 km/h 59 % 0 mm
15:14 11.7 °C 3.7 °C 1028 hPa East 1.9 km/h 0.2 km/h 58 % 0 mm
15:19 11.6 °C 3.9 °C 1028 hPa East 5.6 km/h 3.5 km/h 59 % 0 mm
15:24 11.6 °C 4.6 °C 1028 hPa East 1.9 km/h 1.9 km/h 62 % 0 mm
15:29 11.5 °C 5.4 °C 1028 hPa East 5.6 km/h 2.9 km/h 66 % 0 mm
15:34 11.5 °C 6.4 °C 1028 hPa East 6.4 km/h 5.1 km/h 71 % 0 mm
15:39 11.2 °C 6.6 °C 1028 hPa East 7.4 km/h 5 km/h 73 % 0 mm
15:44 11 °C 6.7 °C 1028 hPa East 5.6 km/h 4.3 km/h 75 % 0 mm
15:49 10.8 °C 6.5 °C 1028 hPa East 5.6 km/h 4.7 km/h 75 % 0 mm
15:54 10.7 °C 6.8 °C 1028 hPa East 5.6 km/h 2.9 km/h 77 % 0 mm
15:59 10.6 °C 6.7 °C 1028 hPa East 8 km/h 4.2 km/h 77 % 0 mm
16:04 10.4 °C 6.8 °C 1028 hPa East 5.6 km/h 4.5 km/h 78 % 0 mm
16:09 10.3 °C 6.4 °C 1028 hPa East 5.6 km/h 5 km/h 77 % 0 mm
16:14 10.2 °C 6.6 °C 1028 hPa East 5.6 km/h 3.9 km/h 78 % 0 mm
16:19 10.2 °C 6.5 °C 1028 hPa East 4.8 km/h 3.2 km/h 78 % 0 mm
16:24 10.2 °C 6.5 °C 1028 hPa East 3.7 km/h 0.2 km/h 78 % 0 mm
16:29 10.1 °C 6.4 °C 1028 hPa East 5.6 km/h 1.8 km/h 78 % 0 mm
16:34 10.1 °C 6.4 °C 1028 hPa East 3.2 km/h 1.1 km/h 78 % 0 mm
16:39 10.1 °C 6.4 °C 1028 hPa Calm   0.2 km/h 78 % 0 mm
16:44 10 °C 6.3 °C 1028 hPa East 3.7 km/h   78 % 0 mm
16:49 10 °C 6.3 °C 1028 hPa Calm     78 % 0 mm
16:54 9.9 °C 6.4 °C 1028 hPa Calm     79 % 0 mm
16:59 9.9 °C 6.4 °C 1028 hPa Calm     79 % 0 mm
17:04 9.8 °C 6.4 °C 1028 hPa Calm     79 % 0 mm
17:09 9.7 °C 6.3 °C 1028 hPa East 1.9 km/h   79 % 0 mm
17:14 9.7 °C 6.4 °C 1028 hPa Calm     80 % 0 mm
17:19 9.6 °C 6.3 °C 1028 hPa Calm     80 % 0 mm
17:24 9.5 °C 6.4 °C 1028 hPa Calm     81 % 0 mm
17:29 9.5 °C 6.4 °C 1028 hPa Calm     81 % 0 mm
17:34 9.4 °C 6.3 °C 1028 hPa Calm     81 % 0 mm
17:39 9.3 °C 6.2 °C 1028 hPa Calm     81 % 0 mm
17:44 9.2 °C 6.3 °C 1028 hPa Calm     82 % 0 mm
17:49 9.2 °C 6.4 °C 1028 hPa Calm     83 % 0 mm
17:54 9.1 °C 6.4 °C 1028 hPa Calm     83 % 0 mm
17:59 9 °C 6.4 °C 1028 hPa Calm     84 % 0 mm
18:04 9 °C 6.4 °C 1028 hPa Calm     84 % 0 mm
18:09 9 °C 6.4 °C 1028 hPa Calm     84 % 0 mm
18:14 8.9 °C 7.1 °C 1028 hPa Calm     88 % 0 mm
18:19 8.9 °C 6.5 °C 1027.7 hPa Calm     85 % 0 mm
18:24 8.9 °C 6.5 °C 1027.7 hPa Calm     85 % 0 mm
18:29 8.8 °C 6.6 °C 1027.7 hPa Calm     86 % 0 mm
18:34 8.8 °C 6.6 °C 1027.7 hPa Calm     86 % 0 mm
18:39 8.7 °C 6.5 °C 1028 hPa Calm     86 % 0 mm
18:44 8.7 °C 6.5 °C 1028 hPa Calm     86 % 0 mm
18:49 8.6 °C 6.6 °C 1028 hPa Calm     87 % 0 mm
18:54 8.6 °C 6.5 °C 1028 hPa Calm     87 % 0 mm
18:59 8.5 °C 6.4 °C 1028 hPa Calm     87 % 0 mm
19:04 8.4 °C 6.3 °C 1028 hPa Calm     87 % 0 mm
19:09 8.4 °C 6.3 °C 1028 hPa Calm     87 % 0 mm
19:14 8.3 °C 6.4 °C 1028 hPa Calm     88 % 0 mm
19:19 8.2 °C 6.3 °C 1027.7 hPa Calm     88 % 0 mm
19:24 8.2 °C 6.3 °C 1027.7 hPa Calm     88 % 0 mm
19:29 8.1 °C 6.2 °C 1027.7 hPa Calm     88 % 0 mm
19:34 8.1 °C 6.3 °C 1027.7 hPa Calm     89 % 0 mm
19:39 8 °C 6.3 °C 1027.7 hPa Calm     89 % 0 mm
19:44 7.9 °C 6.2 °C 1027.7 hPa Calm     89 % 0 mm
19:49 7.9 °C 6.2 °C 1027.7 hPa Calm     89 % 0 mm
19:54 7.8 °C 6.1 °C 1027.7 hPa Calm     89 % 0 mm
19:59 7.7 °C 6 °C 1027.7 hPa Calm     89 % 0 mm
20:04 7.7 °C 5.9 °C 1027.7 hPa Calm     89 % 0 mm
20:09 7.5 °C 5.8 °C 1027.7 hPa Calm     89 % 0 mm
20:14 7.4 °C 5.7 °C 1027.7 hPa Calm     89 % 0 mm
20:19 7.3 °C 5.7 °C 1027.7 hPa Calm     89 % 0 mm
20:24 7.2 °C 5.6 °C 1027.7 hPa Calm     89 % 0 mm
20:29 7.1 °C 5.6 °C 1027.7 hPa Calm     90 % 0 mm
20:34 7.1 °C 5.5 °C 1027.7 hPa Calm     90 % 0 mm
20:39 6.9 °C 5.4 °C 1027.7 hPa Calm     90 % 0 mm
20:44 6.9 °C 5.5 °C 1027.7 hPa Calm     91 % 0 mm
20:49 6.9 °C 5.5 °C 1027.7 hPa Calm     91 % 0 mm
20:54 6.8 °C 5.4 °C 1027.7 hPa Calm     91 % 0 mm
20:59 6.7 °C 5.3 °C 1027.7 hPa Calm     91 % 0 mm
21:04 6.7 °C 5.3 °C 1027.7 hPa Calm     91 % 0 mm
21:09 6.7 °C 5.3 °C 1027.7 hPa Calm     91 % 0 mm
21:14 6.6 °C 5.2 °C 1027.7 hPa Calm     91 % 0 mm
21:19 6.6 °C 5.2 °C 1027.7 hPa Calm     91 % 0 mm
21:24 6.6 °C 5.3 °C 1027.7 hPa Calm     92 % 0 mm
21:29 6.5 °C 5.3 °C 1027.7 hPa East 3.7 km/h 2.1 km/h 92 % 0 mm
21:34 6.6 °C 5.3 °C 1027.7 hPa Calm     92 % 0 mm
21:39 6.7 °C 5.6 °C 1027.3 hPa Calm     93 % 0 mm
21:44 6.7 °C 5.4 °C 1027.3 hPa Calm     92 % 0 mm
21:49 6.6 °C 5.4 °C 1027.3 hPa Calm     92 % 0 mm
21:54 6.6 °C 5.3 °C 1027.3 hPa Calm     92 % 0 mm
21:59 6.4 °C 5.2 °C 1027 hPa Calm     92 % 0 mm
22:04 6.3 °C 5.1 °C 1027 hPa Calm     92 % 0 mm
22:09 6.2 °C 5 °C 1027 hPa Calm     92 % 0 mm
22:14 6.1 °C 4.8 °C 1027 hPa Calm     92 % 0 mm
22:19 5.9 °C 4.7 °C 1027 hPa Calm     92 % 0 mm
22:24 5.8 °C 4.6 °C 1027 hPa Calm     92 % 0 mm
22:29 5.6 °C 4.3 °C 1027 hPa Calm     92 % 0 mm
22:34 5.4 °C 4.2 °C 1027 hPa Calm     92 % 0 mm
22:39 5.3 °C 4.1 °C 1027 hPa Calm     92 % 0 mm
22:44 5.1 °C 3.9 °C 1027 hPa Calm     92 % 0 mm
22:49 5.1 °C 4.1 °C 1027 hPa Calm     93 % 0 mm
22:54 5.2 °C 4.2 °C 1027 hPa Calm     93 % 0 mm
22:59 5.2 °C 4.2 °C 1027 hPa Calm     93 % 0 mm
23:04 5.2 °C 4.2 °C 1027 hPa Calm     93 % 0 mm
23:09 5.2 °C 4.2 °C 1027 hPa Calm     93 % 0 mm
23:14 5.2 °C 4.2 °C 1026.6 hPa Calm     93 % 0 mm
23:19 5.3 °C 4.2 °C 1027 hPa Calm     93 % 0 mm
23:24 5.3 °C 4.4 °C 1027 hPa Calm     94 % 0 mm
23:29 5.3 °C 4.4 °C 1027 hPa Calm     94 % 0 mm
23:34 5.3 °C 4.4 °C 1026.6 hPa Calm     94 % 0 mm
23:39 5.3 °C 4.4 °C 1026.6 hPa Calm     94 % 0 mm
23:44 5.4 °C 4.5 °C 1026.6 hPa Calm     94 % 0 mm
23:49 5.4 °C 4.6 °C 1026.6 hPa Calm     94 % 0 mm
23:54 5.4 °C 4.6 °C 1026.6 hPa Calm     94 % 0 mm
23:59 5.4 °C 4.6 °C 1026.6 hPa Calm     94 % 0 mm
Ararat Weather
Compliments of Weather Underground - 2.25 mb
Click here to send mail.


ABOUT

Live weather data from Ararat, Victoria, Australia, 3377
Data uploaded from Cumulus every 5 minutes to Weather Underground.
This site then downloads the raw data for formatting and display.
Metric and imperial data can be displayed. Graphs and historical data available.
Includes Sun and Moon times and rain image live from BOM.

Check out Ararat Weather on Facebook, Twitter and Google +

Help support ongoing costs by checking out the ads





Follow @AraratWeather